Time;durP1;ratioP1;P1;durP2;ratioP2;P2;SDS_P1;SDS_P2;PMS_P1;PMS_P2;Temp;Humidity;BMP_temperature;BMP_pressure;BME280_temperature;BME280_humidity;BME280_pressure;Samples;Min_cycle;Max_cycle;Signal;HPM_P1;HPM_P2
2022/04/06 00:02:21;;;;;;;26.40;13.33;;;;;;;6.53;100.00;61495.97;5095205;28;20469;-72
2022/04/06 00:04:48;;;;;;;28.20;13.57;;;;;;;6.27;100.00;61475.81;5095500;28;20532;-72
2022/04/06 00:07:15;;;;;;;30.30;14.00;;;;;;;6.21;100.00;61466.91;5095509;28;20442;-71
2022/04/06 00:09:42;;;;;;;24.83;13.10;;;;;;;6.12;100.00;61457.31;5095659;28;20429;-72
2022/04/06 00:12:10;;;;;;;34.33;14.80;;;;;;;6.13;100.00;61456.38;5095500;28;20457;-72
2022/04/06 00:14:38;;;;;;;30.00;14.20;;;;;;;6.02;100.00;61447.16;5095176;28;20448;-72
2022/04/06 00:17:06;;;;;;;38.40;15.73;;;;;;;6.03;100.00;61450.22;5095386;28;20452;-72
2022/04/06 00:19:33;;;;;;;41.33;15.13;;;;;;;5.96;100.00;61440.75;5095255;28;20842;-72
2022/04/06 00:22:00;;;;;;;29.67;14.37;;;;;;;5.25;100.00;61370.66;5095092;28;20433;-72
2022/04/06 00:24:28;;;;;;;37.83;14.60;;;;;;;5.78;100.00;61427.16;5095037;28;20503;-72
2022/04/06 00:26:55;;;;;;;27.63;14.10;;;;;;;5.86;100.00;61430.63;5095167;28;20548;-73
2022/04/06 00:29:23;;;;;;;31.70;14.77;;;;;;;5.80;100.00;61424.22;5094900;28;20434;-73
2022/04/06 00:31:50;;;;;;;17.87;10.10;;;;;;;5.64;100.00;61407.16;5094889;28;20469;-72
2022/04/06 00:34:18;;;;;;;21.17;10.30;;;;;;;5.51;100.00;61398.38;5094831;28;20435;-74
2022/04/06 00:36:45;;;;;;;21.73;10.57;;;;;;;4.68;100.00;61305.44;5094966;28;20507;-72
2022/04/06 00:39:12;;;;;;;21.60;11.17;;;;;;;5.32;100.00;61367.47;5094766;28;20440;-72
2022/04/06 00:41:40;;;;;;;19.70;11.07;;;;;;;5.29;100.00;61369.88;5093285;28;20908;-73
2022/04/06 00:44:13;;;;;;;27.07;14.33;;;;;;;5.41;100.00;61380.13;5094583;28;20585;-71
2022/04/06 00:46:42;;;;;;;25.00;13.80;;;;;;;4.85;100.00;61325.53;5095027;28;20441;-72
2022/04/06 00:49:11;;;;;;;19.03;11.63;;;;;;;5.24;100.00;61364.53;5094410;28;20434;-71
2022/04/06 00:51:40;;;;;;;22.40;11.27;;;;;;;4.85;100.00;61315.44;5094542;28;20442;-71
2022/04/06 00:54:07;;;;;;;16.07;10.17;;;;;;;5.34;100.00;61369.59;5094346;28;20434;-72
2022/04/06 00:56:35;;;;;;;13.73;9.33;;;;;;;5.29;100.00;61369.34;5094615;28;20446;-72
2022/04/06 00:59:03;;;;;;;17.90;10.23;;;;;;;5.18;100.00;61358.16;5093078;28;20816;-72
2022/04/06 01:01:29;;;;;;;16.17;9.67;;;;;;;5.27;100.00;61367.75;5094351;28;20439;-72
2022/04/06 01:03:58;;;;;;;15.67;9.80;;;;;;;5.24;100.00;61362.03;5093941;28;20485;-72
2022/04/06 01:06:25;;;;;;;19.60;9.47;;;;;;;5.24;100.00;61362.03;5094320;28;20539;-71
2022/04/06 01:08:52;;;;;;;19.33;10.73;;;;;;;5.16;100.00;61356.03;5094396;28;20515;-71
2022/04/06 01:11:20;;;;;;;17.37;10.00;;;;;;;5.17;100.00;61354.56;5094345;28;20470;-71
2022/04/06 01:13:47;;;;;;;20.73;10.37;;;;;;;5.17;100.00;61357.09;5094173;28;20438;-73
2022/04/06 01:16:14;;;;;;;19.83;9.00;;;;;;;5.05;100.00;61344.31;5093954;28;20540;-71
2022/04/06 01:18:41;;;;;;;19.67;9.93;;;;;;;5.02;100.00;61341.09;5093872;28;20441;-73
2022/04/06 01:21:12;;;;;;;18.60;9.57;;;;;;;5.09;100.00;61348.56;5094871;28;20526;-73
2022/04/06 01:23:42;;;;;;;15.03;9.07;;;;;;;5.03;100.00;61337.13;5093765;28;20899;-73
2022/04/06 01:26:09;;;;;;;15.33;8.37;;;;;;;4.92;100.00;61327.94;5094034;28;20436;-70
2022/04/06 01:28:36;;;;;;;21.50;9.80;;;;;;;4.84;100.00;61316.88;5093607;28;20500;-72
2022/04/06 01:31:04;;;;;;;17.53;9.23;;;;;;;4.84;100.00;61321.94;5093577;28;20446;-73
2022/04/06 01:33:31;;;;;;;18.57;9.07;;;;;;;4.72;100.00;61309.16;5093554;28;20567;-72
2022/04/06 01:35:58;;;;;;;26.43;9.90;;;;;;;4.40;100.00;61275.63;5093660;28;20446;-73
2022/04/06 01:38:26;;;;;;;15.63;8.33;;;;;;;4.58;100.00;61294.25;5093543;28;20980;-72
2022/04/06 01:40:54;;;;;;;16.60;8.67;;;;;;;4.45;100.00;61285.47;5093496;28;20437;-74
2022/04/06 01:43:22;;;;;;;19.67;8.70;;;;;;;4.28;100.00;61263.38;5093102;28;20987;-72
2022/04/06 01:45:49;;;;;;;15.53;8.43;;;;;;;4.25;100.00;61260.19;5093362;28;20441;-73
2022/04/06 01:48:16;;;;;;;20.07;8.03;;;;;;;4.39;100.00;61271.50;5093394;28;20498;-71
2022/04/06 01:53:27;;;;;;;19.40;8.27;;;;;;;4.47;100.00;61287.59;5092917;28;20483;-71
2022/04/06 01:55:56;;;;;;;15.50;8.83;;;;;;;4.27;100.00;61262.31;5093126;28;20506;-73
2022/04/06 01:58:23;;;;;;;14.90;8.50;;;;;;;4.10;100.00;61244.22;5093113;28;20815;-73
2022/04/06 02:00:51;;;;;;;15.17;8.23;;;;;;;4.32;100.00;61266.56;5093019;28;20971;-72
2022/04/06 02:03:18;;;;;;;15.07;7.60;;;;;;;4.52;100.00;61285.34;5093024;28;20477;-72
2022/04/06 02:05:46;;;;;;;15.07;7.77;;;;;;;4.64;100.00;61298.13;5093033;28;20465;-72
2022/04/06 02:08:12;;;;;;;16.30;8.10;;;;;;;4.62;100.00;61298.50;5093057;28;20442;-71
2022/04/06 02:10:40;;;;;;;18.23;8.63;;;;;;;4.54;100.00;61290.00;5092620;28;20461;-70
2022/04/06 02:13:08;;;;;;;14.13;8.07;;;;;;;4.43;100.00;61283.34;5092948;28;20525;-73
2022/04/06 02:15:37;;;;;;;13.53;7.73;;;;;;;4.46;100.00;61281.47;5093056;28;20498;-71
2022/04/06 02:18:04;;;;;;;17.53;8.13;;;;;;;4.44;100.00;61291.94;5092855;28;20793;-72
2022/04/06 02:20:31;;;;;;;17.93;8.20;;;;;;;4.67;100.00;61303.84;5092774;28;20506;-71
2022/04/06 02:22:58;;;;;;;8.27;5.77;;;;;;;4.80;100.00;61315.16;5092633;28;20475;-72
2022/04/06 02:25:25;;;;;;;10.87;6.60;;;;;;;4.89;100.00;61332.31;5092556;28;20868;-71
2022/04/06 02:27:54;;;;;;;13.63;6.63;;;;;;;4.95;100.00;61336.19;5092658;28;20453;-72
2022/04/06 02:30:23;;;;;;;16.90;5.90;;;;;;;4.99;100.00;61333.38;5092519;28;20928;-71
2022/04/06 02:32:50;;;;;;;10.23;5.53;;;;;;;4.98;100.00;61337.38;5092522;28;20478;-72
2022/04/06 02:35:17;;;;;;;12.17;5.50;;;;;;;5.13;100.00;61353.34;5092328;28;20971;-73
2022/04/06 02:37:45;;;;;;;9.50;5.10;;;;;;;5.02;100.00;61341.66;5092249;28;20450;-73
2022/04/06 02:40:13;;;;;;;7.20;4.83;;;;;;;4.45;100.00;61280.41;5092706;28;20434;-72
2022/04/06 02:42:43;;;;;;;8.50;4.87;;;;;;;5.19;100.00;61359.22;5092793;28;20444;-72
2022/04/06 02:45:11;;;;;;;12.33;4.93;;;;;;;5.13;100.00;61352.84;5092629;28;20485;-71
2022/04/06 02:47:39;;;;;;;10.57;5.07;;;;;;;5.16;100.00;61350.97;5092336;28;20437;-73
2022/04/06 02:50:07;;;;;;;14.33;5.70;;;;;;;5.04;100.00;61343.25;5091966;28;21025;-72
2022/04/06 02:52:34;;;;;;;10.47;5.87;;;;;;;4.77;100.00;61315.00;5092149;28;20429;-74
2022/04/06 02:55:01;;;;;;;11.20;5.27;;;;;;;5.12;100.00;61351.75;5092513;28;20842;-72
2022/04/06 02:57:28;;;;;;;12.00;5.73;;;;;;;5.16;100.00;61356.03;5092177;28;20434;-71
2022/04/06 02:59:54;;;;;;;12.50;5.27;;;;;;;5.10;100.00;61347.66;5092655;28;20509;-72
2022/04/06 03:02:21;;;;;;;13.80;5.93;;;;;;;5.06;100.00;61345.38;5092082;28;20829;-71
2022/04/06 03:04:49;;;;;;;16.33;6.20;;;;;;;5.05;100.00;61344.31;5092046;28;20560;-71
2022/04/06 03:07:20;;;;;;;19.50;6.77;;;;;;;4.92;100.00;61332.97;5091931;28;20855;-71
2022/04/06 03:09:47;;;;;;;15.63;6.57;;;;;;;4.89;100.00;61332.31;5091976;28;20548;-72
2022/04/06 03:12:14;;;;;;;20.30;8.43;;;;;;;4.93;100.00;61329.53;5092165;28;20442;-71
2022/04/06 03:14:41;;;;;;;17.53;7.87;;;;;;;4.92;100.00;61325.94;5092016;28;20446;-72
2022/04/06 03:17:08;;;;;;;36.80;13.03;;;;;;;4.98;100.00;61337.38;5091839;28;20446;-72
2022/04/06 03:19:35;;;;;;;27.10;10.77;;;;;;;4.62;100.00;61301.03;5090645;28;20951;-72
2022/04/06 03:22:04;;;;;;;59.80;26.87;;;;;;;4.38;100.00;61272.97;5091694;28;20476;-71
2022/04/06 03:24:31;;;;;;;40.80;21.40;;;;;;;4.54;100.00;61292.50;5091783;28;21046;-72
2022/04/06 03:26:58;;;;;;;72.70;39.27;;;;;;;4.24;100.00;61259.13;5091986;28;20507;-71
2022/04/06 03:29:24;;;;;;;165.17;80.37;;;;;;;3.97;100.00;61234.91;5091952;28;20445;-72
2022/04/06 03:31:51;;;;;;;116.13;55.57;;;;;;;4.12;100.00;61248.88;5092478;28;20465;-72
2022/04/06 03:34:18;;;;;;;56.83;29.90;;;;;;;4.01;100.00;61234.66;5091802;28;20495;-71
2022/04/06 03:36:45;;;;;;;59.77;33.07;;;;;;;3.80;100.00;61216.81;5092653;28;20451;-71
2022/04/06 03:39:13;;;;;;;60.77;25.40;;;;;;;3.85;100.00;61220.16;5091974;28;20449;-70
2022/04/06 03:41:40;;;;;;;31.37;17.43;;;;;;;3.88;100.00;61220.81;5091544;28;20437;-72
2022/04/06 03:44:07;;;;;;;48.90;23.50;;;;;;;3.95;100.00;61233.31;5091524;28;20530;-71
2022/04/06 03:46:34;;;;;;;46.37;13.23;;;;;;;3.72;100.00;61203.81;5091557;28;20923;-71
2022/04/06 03:49:00;;;;;;;38.83;12.20;;;;;;;3.75;100.00;61206.97;5092277;28;20491;-71
2022/04/06 03:51:27;;;;;;;30.17;11.43;;;;;;;3.59;100.00;61195.00;5091656;28;20941;-72
2022/04/06 03:53:54;;;;;;;29.93;10.70;;;;;;;2.94;100.00;61121.38;5091571;28;20445;-70
2022/04/06 03:56:23;;;;;;;22.63;10.40;;;;;;;3.30;100.00;61159.13;5091626;28;20434;-71
2022/04/06 03:58:49;;;;;;;18.20;9.93;;;;;;;3.43;100.00;61170.44;5092014;28;20433;-72
2022/04/06 04:01:16;;;;;;;17.43;9.43;;;;;;;3.44;100.00;61169.00;5092121;28;20491;-72
2022/04/06 04:03:43;;;;;;;25.90;9.90;;;;;;;3.52;100.00;61182.00;5091432;28;20522;-72
2022/04/06 04:06:10;;;;;;;26.63;10.17;;;;;;;3.33;100.00;61159.81;5091206;28;20502;-73
2022/04/06 04:08:37;;;;;;;20.47;9.87;;;;;;;3.39;100.00;61168.69;5091453;28;20495;-72
2022/04/06 04:11:03;;;;;;;17.77;9.93;;;;;;;3.05;100.00;61127.53;5091210;28;20473;-72
2022/04/06 04:13:32;;;;;;;23.90;9.83;;;;;;;3.28;100.00;61162.56;5091775;28;20495;-72
2022/04/06 04:15:59;;;;;;;53.00;26.20;;;;;;;3.22;100.00;61150.63;5092605;28;20499;-71
2022/04/06 04:18:26;;;;;;;35.00;14.93;;;;;;;3.04;100.00;61132.00;5096657;28;20506;-72
2022/04/06 04:21:31;;;;;;;50.83;33.67;;;;;;;3.65;100.00;61190.78;5096103;28;20535;-71
2022/04/06 04:23:39;;;;;;;42.77;16.20;;;;;;;3.60;100.00;61191.03;5094733;28;20577;-72
2022/04/06 04:26:06;;;;;;;28.90;11.80;;;;;;;3.58;100.00;61185.84;5094814;28;20446;-71
2022/04/06 04:28:34;;;;;;;24.73;10.13;;;;;;;3.56;100.00;61186.25;5095427;28;20495;-72
2022/04/06 04:31:01;;;;;;;21.57;10.10;;;;;;;3.70;100.00;61201.69;5094734;28;20483;-72
2022/04/06 04:33:28;;;;;;;35.90;10.43;;;;;;;3.78;100.00;61212.16;5095264;28;20464;-72
2022/04/06 04:35:56;;;;;;;26.37;10.60;;;;;;;3.98;100.00;61225.88;5094820;28;20495;-72
2022/04/06 04:38:23;;;;;;;33.33;11.87;;;;;;;3.96;100.00;61229.34;5094736;28;20441;-71
2022/04/06 04:40:51;;;;;;;34.37;12.03;;;;;;;3.94;100.00;61227.22;5094363;28;20438;-71
2022/04/06 04:43:18;;;;;;;35.23;12.90;;;;;;;4.06;100.00;61239.44;5094626;28;20445;-73
2022/04/06 04:45:51;;;;;;;51.37;17.47;;;;;;;4.08;100.00;61242.09;5094511;28;21064;-73
2022/04/06 04:48:18;;;;;;;54.07;19.07;;;;;;;4.13;100.00;61247.41;5093294;28;20555;-72
2022/04/06 04:50:45;;;;;;;55.13;18.87;;;;;;;4.28;100.00;61260.34;5094435;28;20441;-71
2022/04/06 04:53:12;;;;;;;39.23;17.60;;;;;;;4.34;100.00;61268.69;5093974;28;20948;-71
2022/04/06 04:55:39;;;;;;;50.77;18.03;;;;;;;4.41;100.00;61276.16;5094316;28;20442;-70
2022/04/06 04:58:06;;;;;;;36.00;15.30;;;;;;;4.62;100.00;61301.03;5093993;28;20438;-72
2022/04/06 05:00:32;;;;;;;35.57;14.80;;;;;;;4.77;100.00;61315.00;5094276;28;20507;-72
2022/04/06 05:03:02;;;;;;;32.13;13.30;;;;;;;4.95;100.00;61331.13;5094750;28;20499;-71
2022/04/06 05:05:30;;;;;;;34.63;12.97;;;;;;;5.14;100.00;61351.38;5094312;28;20944;-72
2022/04/06 05:07:58;;;;;;;33.20;12.43;;;;;;;5.27;100.00;61365.22;5094026;28;20503;-72
2022/04/06 05:10:25;;;;;;;27.90;11.47;;;;;;;5.48;100.00;61390.13;5093804;28;20470;-73
2022/04/06 05:12:52;;;;;;;30.43;10.37;;;;;;;5.85;100.00;61429.59;5094499;28;20516;-71
2022/04/06 05:15:19;;;;;;;32.50;11.10;;;;;;;5.86;100.00;61428.13;5093892;28;20778;-71
2022/04/06 05:17:46;;;;;;;25.33;10.80;;;;;;;6.04;100.00;61449.28;5093233;28;20434;-73
2022/04/06 05:20:14;;;;;;;34.13;12.47;;;;;;;5.89;100.00;61433.31;5094718;28;20438;-74
2022/04/06 05:22:42;;;;;;;27.63;11.23;;;;;;;6.12;100.00;61457.31;5093940;28;20861;-71
2022/04/06 05:25:09;;;;;;;25.00;10.50;;;;;;;6.44;100.00;61491.44;5093744;28;20489;-72
2022/04/06 05:27:44;;;;;;;24.13;11.90;;;;;;;6.59;100.00;61507.97;5092967;28;20446;-72
2022/04/06 05:30:13;;;;;;;42.90;12.77;;;;;;;6.82;100.00;61531.97;5093904;28;20445;-71
2022/04/06 05:32:42;;;;;;;25.70;12.10;;;;;;;6.92;100.00;61542.13;5093746;28;20534;-72
2022/04/06 05:35:10;;;;;;;24.13;10.50;;;;;;;7.02;100.00;61553.34;5093448;28;20932;-73
2022/04/06 05:37:39;;;;;;;28.10;10.93;;;;;;;6.90;100.00;61540.53;5093193;28;20498;-72
2022/04/06 05:40:08;;;;;;;24.40;8.13;;;;;;;7.44;100.00;61600.72;5092335;28;20793;-72
2022/04/06 05:42:35;;;;;;;26.00;10.30;;;;;;;7.69;100.00;61624.84;5093542;28;20445;-72
2022/04/06 05:45:03;;;;;;;18.77;9.00;;;;;;;7.54;100.00;61611.38;5094153;28;20490;-70
2022/04/06 05:47:30;;;;;;;20.53;8.67;;;;;;;7.74;100.00;61629.66;5093439;28;20452;-72
2022/04/06 05:49:57;;;;;;;16.23;9.70;;;;;;;7.86;100.00;61641.94;5093145;28;20442;-71
2022/04/06 05:52:24;;;;;;;57.10;13.93;;;;;;;8.19;100.00;61677.22;5093373;28;20506;-72
2022/04/06 05:54:52;;;;;;;22.47;10.63;;;;;;;8.39;100.00;61701.69;5093336;28;20470;-72
2022/04/06 05:57:19;;;;;;;23.37;12.00;;;;;;;8.67;100.00;61730.56;5093202;28;20430;-72
2022/04/06 05:59:46;;;;;;;48.20;16.37;;;;;;;8.61;100.00;61722.13;5093563;28;20507;-70
2022/04/06 06:02:13;;;;;;;39.97;17.57;;;;;;;8.43;100.00;61698.34;5093285;28;20495;-72
2022/04/06 06:04:40;;;;;;;34.03;16.13;;;;;;;8.94;100.00;61752.34;5092985;28;20830;-71
2022/04/06 06:07:08;;;;;;;29.00;13.93;;;;;;;9.26;100.00;61789.09;5092835;28;20441;-73
2022/04/06 06:09:36;;;;;;;25.23;11.27;;;;;;;9.35;100.00;61795.66;5093185;28;20452;-72
2022/04/06 06:12:05;;;;;;;22.40;10.57;;;;;;;9.59;100.00;61823.34;5092423;28;20530;-72
2022/04/06 06:14:32;;;;;;;20.57;10.57;;;;;;;9.93;100.00;61862.81;5093311;28;20499;-72
2022/04/06 06:16:59;;;;;;;22.33;10.17;;;;;;;10.38;100.00;61910.50;5092680;28;20817;-71
2022/04/06 06:19:26;;;;;;;19.20;10.17;;;;;;;10.62;100.00;61936.22;5092862;28;20290;-71
2022/04/06 06:21:53;;;;;;;16.67;10.23;;;;;;;10.75;100.00;61945.03;5092907;28;20195;-72
2022/04/06 06:24:21;;;;;;;26.57;11.20;;;;;;;10.85;100.00;61960.84;5092559;28;20228;-73
2022/04/06 06:26:49;;;;;;;23.47;10.70;;;;;;;11.17;100.00;61994.06;5092570;28;20573;-72
2022/04/06 06:29:17;;;;;;;28.93;11.33;;;;;;;11.34;100.00;62012.28;5092411;28;20261;-72
2022/04/06 06:31:44;;;;;;;26.73;10.40;;;;;;;10.78;100.00;61945.72;5092834;28;20278;-71
2022/04/06 06:34:12;;;;;;;30.37;11.03;;;;;;;11.53;100.00;62028.09;5092269;28;20662;-71
2022/04/06 06:36:38;;;;;;;29.73;11.20;;;;;;;11.85;100.00;62061.91;5092553;28;20203;-72
2022/04/06 06:39:05;;;;;;;26.23;9.50;;;;;;;11.83;100.00;62062.31;5092169;28;20196;-73
2022/04/06 06:41:34;;;;;;;16.63;8.10;;;;;;;11.91;100.00;62072.91;5091398;28;20215;-73
2022/04/06 06:44:02;;;;;;;19.73;10.17;;;;;;;12.06;100.00;62086.97;5092399;28;20261;-72
2022/04/06 06:46:31;;;;;;;28.70;9.40;;;;;;;11.99;100.00;62076.38;5092717;28;20743;-72
2022/04/06 06:49:02;;;;;;;19.67;8.63;;;;;;;12.13;100.00;62096.50;5092357;28;20199;-71
2022/04/06 06:51:30;;;;;;;25.87;8.20;;;;;;;12.31;100.00;62113.81;5092241;28;20657;-71
2022/04/06 06:53:57;;;;;;;22.63;7.80;;;;;;;11.88;100.00;62070.22;5092255;28;20203;-73
2022/04/06 06:56:24;;;;;;;24.50;7.93;;;;;;;12.08;100.00;62091.69;5091206;28;20205;-72
2022/04/06 06:58:51;;;;;;;19.97;8.03;;;;;;;12.65;100.00;62152.84;5092878;28;20560;-73
2022/04/06 07:01:18;;;;;;;19.43;9.13;;;;;;;13.23;100.00;62206.41;5092090;28;20240;-73
2022/04/06 07:03:47;;;;;;;18.30;7.60;;;;;;;13.57;100.00;62251.13;5091779;28;20196;-71
2022/04/06 07:06:14;;;;;;;17.83;8.73;;;;;;;13.86;100.00;62279.22;5091567;28;20300;-70
2022/04/06 07:08:41;;;;;;;18.40;9.33;;;;;;;13.88;100.00;62281.34;5091677;28;20248;-72
2022/04/06 07:11:09;;;;;;;17.57;8.53;;;;;;;14.22;100.00;62317.38;5091840;28;20709;-72
2022/04/06 07:13:36;;;;;;;24.97;10.40;;;;;;;14.45;100.00;62341.59;5091812;28;20269;-72
2022/04/06 07:16:05;;;;;;;27.17;10.37;;;;;;;14.56;100.00;62350.84;5091948;28;20223;-72
2022/04/06 07:18:33;;;;;;;22.60;9.77;;;;;;;14.25;100.00;62323.69;5091767;28;20597;-73
2022/04/06 07:21:01;;;;;;;15.97;9.43;;;;;;;13.89;100.00;62281.88;5091874;28;20231;-71
2022/04/06 07:23:29;;;;;;;25.87;9.37;;;;;;;14.71;100.00;62369.53;5091412;28;20196;-73
2022/04/06 07:25:56;;;;;;;13.20;7.27;;;;;;;14.90;100.00;62398.22;5091503;28;20737;-72
2022/04/06 07:28:23;;;;;;;18.37;7.83;;;;;;;14.98;100.00;62399.13;5091572;28;20230;-72
2022/04/06 07:30:50;;;;;;;32.00;9.27;;;;;;;15.28;100.00;62428.28;5091689;28;20733;-72
2022/04/06 07:33:17;;;;;;;24.90;8.10;;;;;;;15.54;100.00;62460.88;5091612;28;20235;-71
2022/04/06 07:35:46;;;;;;;21.67;8.60;;;;;;;15.54;100.00;62461.44;5091602;28;20204;-71
2022/04/06 07:38:14;;;;;;;18.47;8.13;;;;;;;15.65;100.00;62468.16;5091754;28;20670;-72
2022/04/06 07:40:42;;;;;;;40.50;9.07;;;;;;;15.10;100.00;62414.06;5091725;28;20199;-70
2022/04/06 07:43:11;;;;;;;18.60;7.30;;;;;;;15.12;100.00;62413.66;5091681;28;20199;-73
2022/04/06 07:45:38;;;;;;;24.03;7.90;;;;;;;15.35;100.00;62440.97;5091552;28;20223;-72
2022/04/06 07:48:05;;;;;;;16.33;7.80;;;;;;;15.74;100.00;62482.41;5091444;28;20544;-71
2022/04/06 07:50:33;;;;;;;19.83;8.57;;;;;;;16.17;98.37;62530.75;5093342;28;20195;-73
2022/04/06 07:53:01;;;;;;;20.30;8.57;;;;;;;16.08;94.70;62517.00;5095783;28;20211;-71
2022/04/06 07:55:30;;;;;;;17.20;8.60;;;;;;;15.99;93.91;62509.91;5095450;28;20248;-72
2022/04/06 07:57:56;;;;;;;19.60;9.23;;;;;;;16.20;92.73;62528.88;5095637;28;20295;-72
2022/04/06 08:00:24;;;;;;;26.40;9.00;;;;;;;16.70;90.07;62582.75;5095507;28;20200;-72
2022/04/06 08:02:51;;;;;;;20.43;7.43;;;;;;;17.08;85.73;62623.72;5096014;28;20199;-72
2022/04/06 08:05:19;;;;;;;18.83;8.20;;;;;;;16.12;87.36;62522.81;5095088;28;20285;-73
2022/04/06 08:07:50;;;;;;;19.57;7.90;;;;;;;16.82;87.22;62598.25;5095183;28;20284;-71
2022/04/06 08:10:18;;;;;;;20.03;8.63;;;;;;;17.16;86.48;62629.22;5095149;28;20720;-72
2022/04/06 08:12:47;;;;;;;23.50;8.10;;;;;;;17.58;83.92;62680.22;5093913;28;20547;-72
2022/04/06 08:15:15;;;;;;;19.00;9.40;;;;;;;17.81;83.65;62703.97;5095000;28;20257;-72
2022/04/06 08:17:45;;;;;;;20.40;7.53;;;;;;;17.17;76.84;62630.84;5095195;28;20261;-72
2022/04/06 08:20:14;;;;;;;24.20;8.53;;;;;;;16.82;82.87;62593.13;5095737;28;20227;-72
2022/04/06 08:22:41;;;;;;;29.97;8.77;;;;;;;16.72;91.23;62590.06;5094987;28;20195;-72
2022/04/06 08:25:09;;;;;;;23.33;9.63;;;;;;;16.29;92.61;62536.53;5094957;28;20647;-72
2022/04/06 08:27:40;;;;;;;26.87;9.00;;;;;;;17.00;91.77;62612.53;5094881;28;20662;-71
2022/04/06 08:30:10;;;;;;;22.83;8.23;;;;;;;16.74;88.64;62590.16;5095181;28;20200;-71
2022/04/06 08:32:37;;;;;;;17.90;7.27;;;;;;;16.50;91.49;62566.34;5094697;28;20238;-71
2022/04/06 08:35:04;;;;;;;14.33;6.93;;;;;;;16.69;86.30;62579.09;5094874;28;20496;-72
2022/04/06 08:37:31;;;;;;;16.87;7.23;;;;;;;16.88;89.83;62597.00;5094553;28;20207;-71
2022/04/06 08:39:58;;;;;;;14.50;7.00;;;;;;;17.22;84.00;62643.97;5094485;28;20203;-71
2022/04/06 08:42:31;;;;;;;13.90;7.50;;;;;;;17.43;77.83;62658.88;5094658;28;20196;-71
2022/04/06 08:44:58;;;;;;;22.57;7.40;;;;;;;17.87;77.11;62710.44;5094354;28;20231;-71
2022/04/06 08:47:26;;;;;;;15.57;6.43;;;;;;;17.72;75.69;62697.38;5093777;28;20203;-72
2022/04/06 08:49:53;;;;;;;18.43;6.50;;;;;;;18.35;71.28;62762.75;5093860;28;20200;-72
2022/04/06 08:52:21;;;;;;;13.43;6.10;;;;;;;18.78;67.43;62803.50;5094058;28;20195;-72
2022/04/06 08:54:48;;;;;;;9.60;5.47;;;;;;;18.63;63.29;62786.78;5094372;28;20625;-71
2022/04/06 08:57:16;;;;;;;12.57;6.33;;;;;;;19.04;62.82;62834.16;5094205;28;20195;-71
2022/04/06 08:59:43;;;;;;;13.53;5.90;;;;;;;18.74;59.69;62801.75;5094942;28;20199;-72
2022/04/06 09:02:11;;;;;;;17.30;5.43;;;;;;;18.70;60.38;62800.03;5094814;28;20256;-72
2022/04/06 09:04:41;;;;;;;22.23;6.13;;;;;;;18.40;61.40;62768.16;5094079;28;20199;-71
2022/04/06 09:07:09;;;;;;;14.33;5.70;;;;;;;18.79;60.77;62809.75;5094724;28;20292;-73
2022/04/06 09:09:36;;;;;;;8.30;5.53;;;;;;;18.75;60.82;62804.88;5093958;28;20736;-72
2022/04/06 09:12:08;;;;;;;17.67;7.03;;;;;;;19.38;58.38;62867.78;5093632;28;20219;-71
2022/04/06 09:14:35;;;;;;;10.97;5.30;;;;;;;19.86;57.14;62919.66;5094349;28;20272;-72
2022/04/06 09:17:03;;;;;;;13.73;5.17;;;;;;;20.08;59.07;62948.06;5093638;28;20575;-72
2022/04/06 09:19:31;;;;;;;12.37;5.10;;;;;;;20.24;54.35;62962.81;5094079;28;20230;-72
2022/04/06 09:21:59;;;;;;;9.30;4.60;;;;;;;20.23;52.91;62961.72;5093652;28;20253;-72
2022/04/06 09:24:28;;;;;;;11.70;5.00;;;;;;;20.04;54.54;62938.56;5093636;28;20428;-72
2022/04/06 09:26:58;;;;;;;13.37;5.00;;;;;;;20.47;52.89;62985.06;5093789;28;20228;-71
2022/04/06 09:29:25;;;;;;;9.13;5.00;;;;;;;20.37;52.62;62976.84;5093513;28;20755;-71
2022/04/06 09:31:53;;;;;;;8.40;4.50;;;;;;;20.02;47.94;62941.59;5093545;28;20227;-71
2022/04/06 09:34:22;;;;;;;10.83;4.77;;;;;;;20.78;48.22;63018.06;5093829;28;20261;-73
2022/04/06 09:36:56;;;;;;;8.97;4.63;;;;;;;20.79;48.45;63019.69;5093520;28;20282;-71
2022/04/06 09:39:42;;;;;;;6.67;4.40;;;;;;;20.89;48.69;63032.53;5094125;28;20695;-72
2022/04/06 09:42:09;;;;;;;11.23;4.70;;;;;;;20.66;47.04;63007.69;5093647;28;20261;-72
2022/04/06 09:47:39;;;;;;;5.40;3.20;;;;;;;21.65;39.61;63114.28;5093568;28;20206;-73
2022/04/06 09:50:19;;;;;;;6.57;4.10;;;;;;;21.14;41.04;63057.03;5093275;28;20213;-71
2022/04/06 09:52:47;;;;;;;7.43;3.87;;;;;;;21.20;39.32;63065.56;5093839;28;20211;-72
2022/04/06 09:55:16;;;;;;;7.73;3.53;;;;;;;21.71;38.55;63118.72;5093197;28;20195;-71
2022/04/06 09:57:47;;;;;;;4.33;3.03;;;;;;;21.71;37.78;63120.78;5093572;28;20200;-71
2022/04/06 10:00:18;;;;;;;5.07;3.57;;;;;;;21.76;38.39;63126.19;5092927;28;20282;-72
2022/04/06 10:02:48;;;;;;;7.70;4.27;;;;;;;22.00;40.14;63152.19;5093245;28;20234;-72
2022/04/06 10:05:18;;;;;;;8.43;4.30;;;;;;;22.15;39.52;63171.06;5093059;28;20249;-70
2022/04/06 10:07:48;;;;;;;5.80;3.60;;;;;;;21.98;38.11;63152.63;5093512;28;20203;-71
2022/04/06 10:10:16;;;;;;;5.90;3.53;;;;;;;22.19;38.30;63175.38;5093445;28;20199;-71
2022/04/06 10:12:44;;;;;;;5.70;3.50;;;;;;;22.32;38.49;63184.25;5092763;28;20628;-73
2022/04/06 10:15:11;;;;;;;5.90;3.50;;;;;;;21.89;38.65;63139.75;5092242;28;20200;-71
2022/04/06 10:17:38;;;;;;;5.00;3.33;;;;;;;21.85;38.58;63138.56;5092745;28;20200;-73
2022/04/06 10:20:18;;;;;;;4.03;2.90;;;;;;;21.72;39.02;63119.81;5093545;28;20196;-73
2022/04/06 10:22:56;;;;;;;7.17;3.57;;;;;;;22.08;39.02;63163.47;5092789;28;20199;-72
2022/04/06 10:25:31;;;;;;;4.37;3.03;;;;;;;21.72;39.26;63119.81;5092917;28;20265;-71
2022/04/06 10:28:02;;;;;;;11.63;2.37;;;;;;;22.63;37.69;63223.06;5093279;28;20199;-72
2022/04/06 10:30:29;;;;;;;4.10;2.37;;;;;;;22.26;36.75;63177.75;5093325;28;20211;-72
2022/04/06 10:32:58;;;;;;;2.83;2.27;;;;;;;21.64;38.31;63113.19;5092729;28;20234;-72
2022/04/06 10:35:27;;;;;;;3.20;2.17;;;;;;;21.25;37.71;63068.41;5092555;28;20282;-72
2022/04/06 10:38:16;;;;;;;5.20;3.27;;;;;;;22.33;37.71;63185.34;5092490;28;20651;-72
2022/04/06 10:40:58;;;;;;;4.60;2.30;;;;;;;22.47;36.83;63199.97;5092476;28;20195;-71
2022/04/06 10:43:50;;;;;;;3.13;2.33;;;;;;;22.59;38.46;63218.75;5093497;28;20227;-72
2022/04/06 10:46:21;;;;;;;3.17;2.00;;;;;;;22.78;37.06;63235.66;5092205;28;20227;-71
2022/04/06 10:48:58;;;;;;;7.23;2.40;;;;;;;22.92;37.35;63253.94;5092586;28;20204;-71
2022/04/06 10:51:29;;;;;;;4.03;2.10;;;;;;;22.45;37.53;63200.41;5092298;28;20205;-71
2022/04/06 10:53:56;;;;;;;2.90;1.80;;;;;;;22.69;38.83;63226.44;5092365;28;20195;-71
2022/04/06 10:56:25;;;;;;;4.63;2.10;;;;;;;22.91;38.04;63252.88;5092283;28;20203;-72
2022/04/06 10:59:09;;;;;;;3.60;2.13;;;;;;;23.39;37.69;63302.31;5092333;28;20252;-71
2022/04/06 11:01:44;;;;;;;5.10;2.40;;;;;;;23.81;37.54;63347.31;5092040;28;20218;-73
2022/04/06 11:04:17;;;;;;;5.70;2.50;;;;;;;24.27;36.16;63394.66;5092816;28;20221;-73
2022/04/06 11:06:55;;;;;;;6.00;2.60;;;;;;;24.65;35.36;63434.81;5091088;28;20236;-73
2022/04/06 11:12:13;;;;;;;5.43;2.67;;;;;;;24.95;35.46;63467.41;5092604;28;20233;-73
2022/04/06 11:14:42;;;;;;;5.10;2.27;;;;;;;24.94;35.11;63471.50;5091812;28;20200;-72
2022/04/06 11:17:39;;;;;;;3.37;2.30;;;;;;;25.03;34.42;63481.81;5091682;28;20259;-72
2022/04/06 11:20:08;;;;;;;5.83;2.37;;;;;;;24.99;34.44;63476.97;5091786;28;20198;-73
2022/04/06 11:22:38;;;;;;;6.57;2.33;;;;;;;23.84;33.72;63347.44;5091710;28;20193;-72
2022/04/06 11:25:09;;;;;;;4.77;2.60;;;;;;;24.54;34.58;63428.06;5091659;28;20249;-71
2022/04/06 11:27:39;;;;;;;5.13;2.70;;;;;;;24.14;34.49;63380.56;5095712;28;20743;-73
2022/04/06 11:30:07;;;;;;;8.27;2.80;;;;;;;24.12;35.15;63383.59;5095760;28;20200;-72
2022/04/06 11:32:34;;;;;;;5.27;2.83;;;;;;;24.53;35.67;63424.91;5096668;28;20231;-73
2022/04/06 11:35:02;;;;;;;5.37;2.37;;;;;;;24.98;35.09;63473.25;5095921;28;20548;-72
2022/04/06 11:37:30;;;;;;;8.00;2.73;;;;;;;23.79;34.27;63342.56;5095966;28;20194;-72